Terminal Aerodrome Forecast
Issued by NWS

Home | Current Version | Previous Version | Text Only | Print | Product List | Glossary On
Versions: 1 2 3 4 5 6 7 8 9 10 11 12 13
000
FTUS43 KDLH 231131
TAFBRD
TAF
KBRD 231131Z 2312/2412 VRB03KT P6SM SCT250
      TEMPO 2312/2313 6SM BR
     FM231900 24005KT P6SM FEW250
     FM240600 01007KT P6SM BKN060=

USA.gov is the U.S. government's official web portal to all federal, state and local government web resources and services.